createdAt,value
2024-01-18T00:02:14.654Z,-1.98
2024-01-18T00:07:16.922Z,-2.00
2024-01-18T00:12:20.498Z,-2.11
2024-01-18T00:17:22.778Z,-2.05
2024-01-18T00:22:25.104Z,-2.09
2024-01-18T00:27:28.519Z,-1.94
2024-01-18T00:32:30.708Z,-1.98
2024-01-18T00:37:33.096Z,-2.07
2024-01-18T00:42:36.811Z,-2.04
2024-01-18T00:47:39.117Z,-2.16
2024-01-18T00:52:41.131Z,-2.04
2024-01-18T00:57:44.610Z,-1.94
2024-01-18T01:02:46.849Z,-2.24
2024-01-18T01:07:48.698Z,-2.12
2024-01-18T01:12:52.097Z,-1.91
2024-01-18T01:17:54.372Z,-2.09
2024-01-18T01:22:56.418Z,-2.04
2024-01-18T01:27:59.855Z,-2.07
2024-01-18T01:33:02.099Z,-2.16
2024-01-18T01:38:04.538Z,-2.13
2024-01-18T01:43:08.274Z,-2.09
2024-01-18T01:48:10.610Z,-2.10
2024-01-18T01:53:14.004Z,-2.07
2024-01-18T01:58:19.397Z,-1.99
2024-01-18T02:03:22.187Z,-2.08
2024-01-18T02:08:24.492Z,-2.09
2024-01-18T02:13:28.942Z,-2.14
2024-01-18T02:18:30.989Z,-1.99
2024-01-18T02:23:33.712Z,-2.07
2024-01-18T02:28:37.165Z,-2.22
2024-01-18T02:33:39.299Z,-2.01
2024-01-18T02:38:42.919Z,-2.14
2024-01-18T02:43:46.880Z,-2.08
2024-01-18T02:48:48.967Z,-2.06
2024-01-18T02:53:51.233Z,-2.10
2024-01-18T02:58:54.673Z,-2.18
2024-01-18T03:03:57.209Z,-2.06
2024-01-18T03:08:59.234Z,-2.15
2024-01-18T03:14:02.511Z,-2.23
2024-01-18T03:19:04.391Z,-2.27
2024-01-18T03:24:07.718Z,-2.25
2024-01-18T03:29:11.065Z,-2.46
2024-01-18T03:34:13.072Z,-2.45
2024-01-18T03:39:15.526Z,-2.19
2024-01-18T03:44:19.102Z,-2.40
2024-01-18T03:49:21.736Z,-2.23
2024-01-18T03:54:24.101Z,-2.44
2024-01-18T03:59:27.591Z,-2.24
2024-01-18T04:04:29.822Z,-2.20
2024-01-18T04:09:31.876Z,-2.37
2024-01-18T04:14:35.035Z,-2.37
2024-01-18T04:19:37.263Z,-2.25
2024-01-18T04:24:39.553Z,-2.27
2024-01-18T04:29:42.909Z,-2.43
2024-01-18T04:34:44.933Z,-2.38
2024-01-18T04:39:47.008Z,-2.48
2024-01-18T04:44:50.392Z,-2.46
2024-01-18T04:49:52.600Z,-2.28
2024-01-18T04:54:54.452Z,-2.42
2024-01-18T04:59:57.956Z,-2.41
2024-01-18T05:05:00.586Z,-2.44
2024-01-18T05:10:04.274Z,-2.70
2024-01-18T05:15:09.134Z,-2.75
2024-01-18T05:20:11.429Z,-2.63
2024-01-18T05:25:13.680Z,-2.66
2024-01-18T05:30:17.088Z,-2.60
2024-01-18T05:35:19.240Z,-2.48
2024-01-18T05:40:21.172Z,-2.60
2024-01-18T05:45:24.468Z,-2.75
2024-01-18T05:50:26.675Z,-2.44
2024-01-18T05:55:28.682Z,-2.72
2024-01-18T06:00:32.204Z,-2.54
2024-01-18T06:05:34.662Z,-2.40
2024-01-18T06:10:36.839Z,-2.48
2024-01-18T06:15:40.254Z,-2.70
2024-01-18T06:20:42.534Z,-2.69
2024-01-18T06:25:44.341Z,-2.68
2024-01-18T06:30:47.958Z,-2.44
2024-01-18T06:35:50.349Z,-2.46
2024-01-18T06:40:52.511Z,-2.55
2024-01-18T06:45:56.113Z,-2.63
2024-01-18T06:50:58.344Z,-2.48
2024-01-18T07:01:03.835Z,-2.79
2024-01-18T07:06:06.806Z,-2.79
2024-01-18T07:11:08.913Z,-2.86
2024-01-18T07:16:13.001Z,-2.79
2024-01-18T07:21:16.234Z,-2.83
2024-01-18T07:26:19.953Z,-2.88
2024-01-18T07:31:23.528Z,-2.96
2024-01-18T07:36:25.774Z,-2.70
2024-01-18T07:41:27.743Z,-2.71
2024-01-18T07:46:31.184Z,-2.72
2024-01-18T07:51:33.234Z,-2.47
2024-01-18T07:56:35.260Z,-2.44
2024-01-18T08:01:40.371Z,-2.34
2024-01-18T08:06:43.244Z,-2.36
2024-01-18T08:11:45.546Z,-2.29
2024-01-18T08:16:49.041Z,-2.29
2024-01-18T08:21:51.109Z,-2.37
2024-01-18T08:26:53.413Z,-2.27
2024-01-18T08:31:56.834Z,-1.83
2024-01-18T08:36:58.923Z,-2.06
2024-01-18T08:42:00.957Z,-1.79
2024-01-18T08:47:04.727Z,-1.48
2024-01-18T08:52:06.972Z,-1.79
2024-01-18T08:57:08.839Z,-1.58
2024-01-18T09:02:20.330Z,-1.34
2024-01-18T09:07:26.067Z,-1.38
2024-01-18T09:12:28.248Z,-1.30
2024-01-18T09:17:31.505Z,-1.00
2024-01-18T09:22:33.302Z,-0.93
2024-01-18T09:27:35.321Z,-1.13
2024-01-18T09:32:38.895Z,-0.81
2024-01-18T09:37:40.973Z,-0.83
2024-01-18T09:42:45.671Z,-1.21
2024-01-18T09:47:49.452Z,-1.29
2024-01-18T09:52:51.507Z,-0.92
2024-01-18T09:57:56.523Z,-1.09
2024-01-18T10:02:59.860Z,-0.81
2024-01-18T10:08:02.046Z,-0.93
2024-01-18T10:13:04.443Z,-0.60
2024-01-18T10:18:08.013Z,-0.71
2024-01-18T10:23:10.778Z,-0.92
2024-01-18T10:28:12.848Z,-1.07
2024-01-18T10:33:17.311Z,-0.56
2024-01-18T10:38:28.614Z,-1.26
2024-01-18T10:43:31.016Z,-0.56
2024-01-18T10:48:34.855Z,-0.34
2024-01-18T10:53:37.774Z,-0.58
2024-01-18T10:58:39.616Z,-0.49
2024-01-18T11:03:44.925Z,-0.80
2024-01-18T11:08:48.820Z,-0.52
2024-01-18T11:13:51.097Z,-0.20
2024-01-18T11:18:58.901Z,0.17
2024-01-18T11:24:06.794Z,-0.14
2024-01-18T11:29:26.933Z,0.19
2024-01-18T11:34:35.322Z,-0.09
2024-01-18T11:39:56.860Z,-0.62
2024-01-18T11:45:01.391Z,-0.14
2024-01-18T11:50:10.165Z,-0.18
2024-01-18T11:55:13.465Z,-0.32
2024-01-18T12:00:15.948Z,-0.43
2024-01-18T12:05:19.737Z,-0.67
2024-01-18T12:10:22.303Z,-0.75
2024-01-18T12:15:24.566Z,-0.82
2024-01-18T12:20:28.185Z,-0.62
2024-01-18T12:25:33.720Z,-0.96
2024-01-18T12:30:36.606Z,-1.22
2024-01-18T12:35:40.183Z,-1.39
2024-01-18T12:40:42.307Z,-0.84
2024-01-18T12:45:44.535Z,-0.81
2024-01-18T12:50:48.433Z,-0.46
2024-01-18T12:55:54.079Z,-0.08
2024-01-18T13:00:56.399Z,-0.09
2024-01-18T13:06:00.667Z,-0.08
2024-01-18T13:11:06.334Z,0.19
2024-01-18T13:16:09.805Z,0.24
2024-01-18T13:21:21.071Z,0.57
2024-01-18T13:26:24.231Z,0.88
2024-01-18T13:31:26.784Z,0.36
2024-01-18T13:36:32.002Z,0.75
2024-01-18T13:41:42.258Z,0.37
2024-01-18T13:46:45.605Z,0.34
2024-01-18T13:52:02.211Z,0.03
2024-01-18T13:57:21.117Z,0.09
2024-01-18T14:02:31.161Z,-0.22
2024-01-18T14:07:44.571Z,-0.41
2024-01-18T14:12:47.457Z,-0.59
2024-01-18T14:17:51.210Z,-0.70
2024-01-18T14:23:05.192Z,-0.88
2024-01-18T14:28:09.354Z,-1.14
2024-01-18T14:33:11.915Z,-1.19
2024-01-18T14:38:23.413Z,-1.45
2024-01-18T14:43:30.379Z,-1.60
2024-01-18T14:48:37.624Z,-1.69
2024-01-18T14:53:42.190Z,-1.82
2024-01-18T14:59:01.509Z,-1.82
2024-01-18T15:04:21.162Z,-2.04
2024-01-18T15:09:33.811Z,-2.21
2024-01-18T15:14:38.832Z,-2.35
2024-01-18T15:19:42.052Z,-2.50
2024-01-18T15:24:46.614Z,-2.71
2024-01-18T15:29:58.663Z,-2.98
2024-01-18T15:35:01.977Z,-3.13
2024-01-18T15:40:13.329Z,-3.22
2024-01-18T15:45:16.627Z,-3.18
2024-01-18T15:50:35.257Z,-3.38
2024-01-18T15:55:53.239Z,-3.40
2024-01-18T16:01:07.073Z,-3.91
2024-01-18T16:11:50.765Z,-3.73
2024-01-18T16:17:03.139Z,-3.99
2024-01-18T16:22:19.176Z,-3.93
2024-01-18T16:30:06.907Z,-4.06
2024-01-18T16:38:43.722Z,-4.44
2024-01-18T16:43:56.864Z,-4.41
2024-01-18T16:49:08.868Z,-4.39
2024-01-18T16:54:11.732Z,-4.20
2024-01-18T16:59:23.558Z,-4.27
2024-01-18T17:04:29.347Z,-4.56
2024-01-18T17:09:45.531Z,-4.83
2024-01-18T17:14:50.423Z,-4.86
2024-01-18T17:20:12.800Z,-4.97
2024-01-18T17:25:29.397Z,-5.09
2024-01-18T17:37:07.576Z,-4.77
2024-01-18T17:42:12.205Z,-4.36
2024-01-18T17:47:24.207Z,-4.33
2024-01-18T17:52:36.951Z,-4.48
2024-01-18T17:57:54.621Z,-4.32
2024-01-18T18:03:14.574Z,-4.13
2024-01-18T18:08:23.039Z,-3.60
2024-01-18T18:13:30.038Z,-3.37
2024-01-18T18:18:43.142Z,-3.62
2024-01-18T18:24:04.986Z,-3.87
2024-01-18T18:29:15.725Z,-4.27
2024-01-18T18:34:29.202Z,-4.13
2024-01-18T18:45:47.855Z,-4.14
2024-01-18T18:51:06.330Z,-4.06
2024-01-18T18:56:16.853Z,-4.08
2024-01-18T19:01:31.946Z,-3.79
2024-01-18T19:06:38.768Z,-3.73
2024-01-18T19:11:57.911Z,-3.76
2024-01-18T19:17:31.705Z,-3.71
2024-01-18T19:23:12.110Z,-3.85
2024-01-18T19:28:48.359Z,-3.88
2024-01-18T19:34:22.820Z,-4.05
2024-01-18T19:39:38.522Z,-3.93
2024-01-18T19:44:55.310Z,-4.05
2024-01-18T19:50:18.815Z,-4.25
2024-01-18T19:55:49.838Z,-4.61
2024-01-18T20:01:34.579Z,-4.73
2024-01-18T20:06:53.250Z,-5.18
2024-01-18T20:18:31.387Z,-5.47
2024-01-18T20:29:27.615Z,-6.00
2024-01-18T20:35:04.392Z,-5.92
2024-01-18T20:40:54.785Z,-5.81
2024-01-18T20:46:17.292Z,-5.87
2024-01-18T20:57:29.095Z,-6.42
2024-01-18T21:08:12.173Z,-6.61
2024-01-18T21:13:14.132Z,-6.71
2024-01-18T21:18:16.577Z,-6.84
2024-01-18T21:23:20.658Z,-6.91
2024-01-18T21:28:22.759Z,-6.99
2024-01-18T21:33:25.059Z,-6.93
2024-01-18T21:38:28.918Z,-6.91
2024-01-18T21:43:30.988Z,-7.17
2024-01-18T21:48:33.300Z,-7.04
2024-01-18T21:53:36.902Z,-6.99
2024-01-18T21:58:39.316Z,-7.03
2024-01-18T22:03:42.838Z,-6.93
2024-01-18T22:08:46.318Z,-7.26
2024-01-18T22:13:48.375Z,-6.95
2024-01-18T22:18:50.472Z,-7.15
2024-01-18T22:23:53.705Z,-7.38
2024-01-18T22:28:55.746Z,-7.12
2024-01-18T22:33:57.909Z,-6.81
2024-01-18T22:39:01.593Z,-6.73
2024-01-18T22:44:03.670Z,-6.63
2024-01-18T22:49:06.246Z,-6.70
2024-01-18T22:54:09.894Z,-6.62
2024-01-18T22:59:11.978Z,-6.90
2024-01-18T23:04:14.447Z,-6.87
2024-01-18T23:09:17.892Z,-6.90
2024-01-18T23:14:20.134Z,-6.87
2024-01-18T23:19:22.222Z,-6.94
2024-01-18T23:24:25.753Z,-7.18
2024-01-18T23:29:27.762Z,-7.00
2024-01-18T23:34:29.807Z,-7.06
2024-01-18T23:39:33.381Z,-7.07
2024-01-18T23:44:35.447Z,-7.21
2024-01-18T23:49:37.651Z,-7.42
2024-01-18T23:54:41.130Z,-7.59
2024-01-18T23:59:43.404Z,-7.58
